sensor_id;sensor_type;location;lat;lon;timestamp;P1;durP1;ratioP1;P2;durP2;ratioP2
55150;SDS011;41041;43.162;20.538;2023-02-01T00:01:57;17.50;;;8.30;;
55150;SDS011;41041;43.162;20.538;2023-02-01T00:04:26;17.63;;;10.02;;
55150;SDS011;41041;43.162;20.538;2023-02-01T00:09:20;15.35;;;8.70;;
55150;SDS011;41041;43.162;20.538;2023-02-01T00:11:46;19.75;;;8.75;;
55150;SDS011;41041;43.162;20.538;2023-02-01T00:14:11;17.33;;;8.43;;
55150;SDS011;41041;43.162;20.538;2023-02-01T00:16:41;37.17;;;19.75;;
55150;SDS011;41041;43.162;20.538;2023-02-01T00:19:09;23.90;;;13.23;;
55150;SDS011;41041;43.162;20.538;2023-02-01T00:21:39;19.48;;;8.15;;
55150;SDS011;41041;43.162;20.538;2023-02-01T00:24:06;17.80;;;8.60;;
55150;SDS011;41041;43.162;20.538;2023-02-01T00:26:39;11.13;;;6.07;;
55150;SDS011;41041;43.162;20.538;2023-02-01T00:29:16;10.13;;;5.53;;
55150;SDS011;41041;43.162;20.538;2023-02-01T00:31:43;9.20;;;4.88;;
55150;SDS011;41041;43.162;20.538;2023-02-01T00:34:14;12.13;;;5.72;;
55150;SDS011;41041;43.162;20.538;2023-02-01T00:36:41;10.02;;;5.00;;
55150;SDS011;41041;43.162;20.538;2023-02-01T00:39:10;8.40;;;4.78;;
55150;SDS011;41041;43.162;20.538;2023-02-01T00:41:36;8.35;;;4.80;;
55150;SDS011;41041;43.162;20.538;2023-02-01T00:44:09;10.60;;;6.15;;
55150;SDS011;41041;43.162;20.538;2023-02-01T00:46:35;10.27;;;5.13;;
55150;SDS011;41041;43.162;20.538;2023-02-01T00:49:05;15.73;;;8.05;;
55150;SDS011;41041;43.162;20.538;2023-02-01T00:51:34;16.45;;;8.82;;
55150;SDS011;41041;43.162;20.538;2023-02-01T00:54:00;30.88;;;14.23;;
55150;SDS011;41041;43.162;20.538;2023-02-01T00:56:26;20.55;;;10.63;;
55150;SDS011;41041;43.162;20.538;2023-02-01T00:58:57;33.85;;;14.07;;
55150;SDS011;41041;43.162;20.538;2023-02-01T01:01:25;36.53;;;16.00;;
55150;SDS011;41041;43.162;20.538;2023-02-01T01:03:56;26.27;;;11.85;;
55150;SDS011;41041;43.162;20.538;2023-02-01T01:06:24;18.85;;;9.98;;
55150;SDS011;41041;43.162;20.538;2023-02-01T01:08:58;18.08;;;8.40;;
55150;SDS011;41041;43.162;20.538;2023-02-01T01:11:29;17.23;;;8.82;;
55150;SDS011;41041;43.162;20.538;2023-02-01T01:14:02;14.20;;;7.88;;
55150;SDS011;41041;43.162;20.538;2023-02-01T01:16:30;13.27;;;6.65;;
55150;SDS011;41041;43.162;20.538;2023-02-01T01:18:56;12.80;;;6.80;;
55150;SDS011;41041;43.162;20.538;2023-02-01T01:21:22;13.85;;;7.55;;
55150;SDS011;41041;43.162;20.538;2023-02-01T01:23:51;42.20;;;16.60;;
55150;SDS011;41041;43.162;20.538;2023-02-01T01:26:21;28.17;;;13.80;;
55150;SDS011;41041;43.162;20.538;2023-02-01T01:28:54;62.50;;;28.92;;
55150;SDS011;41041;43.162;20.538;2023-02-01T01:31:28;61.72;;;28.45;;
55150;SDS011;41041;43.162;20.538;2023-02-01T01:33:56;25.85;;;12.05;;
55150;SDS011;41041;43.162;20.538;2023-02-01T01:36:26;18.77;;;9.43;;
55150;SDS011;41041;43.162;20.538;2023-02-01T01:38:53;21.23;;;10.40;;
55150;SDS011;41041;43.162;20.538;2023-02-01T01:41:22;19.60;;;8.60;;
55150;SDS011;41041;43.162;20.538;2023-02-01T01:43:57;24.58;;;10.75;;
55150;SDS011;41041;43.162;20.538;2023-02-01T01:51:35;15.80;;;8.70;;
55150;SDS011;41041;43.162;20.538;2023-02-01T01:54:25;14.38;;;7.53;;
55150;SDS011;41041;43.162;20.538;2023-02-01T01:56:55;14.05;;;8.63;;
55150;SDS011;41041;43.162;20.538;2023-02-01T01:59:24;14.38;;;8.02;;
55150;SDS011;41041;43.162;20.538;2023-02-01T02:01:51;14.52;;;7.70;;
55150;SDS011;41041;43.162;20.538;2023-02-01T02:04:17;17.15;;;8.43;;
55150;SDS011;41041;43.162;20.538;2023-02-01T02:06:54;17.80;;;9.02;;
55150;SDS011;41041;43.162;20.538;2023-02-01T02:09:30;20.67;;;8.57;;
55150;SDS011;41041;43.162;20.538;2023-02-01T02:11:56;12.88;;;5.68;;
55150;SDS011;41041;43.162;20.538;2023-02-01T02:14:22;8.35;;;4.00;;
55150;SDS011;41041;43.162;20.538;2023-02-01T02:19:33;8.70;;;4.28;;
55150;SDS011;41041;43.162;20.538;2023-02-01T02:34:00;20.45;;;10.57;;
55150;SDS011;41041;43.162;20.538;2023-02-01T02:39:07;25.60;;;11.65;;
55150;SDS011;41041;43.162;20.538;2023-02-01T02:44:47;21.45;;;9.35;;
55150;SDS011;41041;43.162;20.538;2023-02-01T02:50:27;17.23;;;7.40;;
55150;SDS011;41041;43.162;20.538;2023-02-01T02:53:19;13.70;;;5.70;;
55150;SDS011;41041;43.162;20.538;2023-02-01T02:56:08;12.18;;;4.60;;
55150;SDS011;41041;43.162;20.538;2023-02-01T02:58:55;11.80;;;5.10;;
55150;SDS011;41041;43.162;20.538;2023-02-01T03:01:41;6.57;;;3.03;;
55150;SDS011;41041;43.162;20.538;2023-02-01T03:04:27;12.70;;;4.97;;
55150;SDS011;41041;43.162;20.538;2023-02-01T03:06:53;7.72;;;3.70;;
55150;SDS011;41041;43.162;20.538;2023-02-01T03:09:31;7.57;;;2.63;;
55150;SDS011;41041;43.162;20.538;2023-02-01T03:15:09;6.88;;;3.40;;
55150;SDS011;41041;43.162;20.538;2023-02-01T03:17:39;8.10;;;3.60;;
55150;SDS011;41041;43.162;20.538;2023-02-01T03:20:08;7.78;;;3.38;;
55150;SDS011;41041;43.162;20.538;2023-02-01T03:22:36;6.68;;;3.25;;
55150;SDS011;41041;43.162;20.538;2023-02-01T03:25:05;5.05;;;2.53;;
55150;SDS011;41041;43.162;20.538;2023-02-01T03:27:43;5.03;;;2.45;;
55150;SDS011;41041;43.162;20.538;2023-02-01T03:30:37;6.05;;;2.85;;
55150;SDS011;41041;43.162;20.538;2023-02-01T03:33:09;6.47;;;3.05;;
55150;SDS011;41041;43.162;20.538;2023-02-01T03:38:58;7.22;;;3.78;;
55150;SDS011;41041;43.162;20.538;2023-02-01T03:41:43;6.28;;;2.53;;
55150;SDS011;41041;43.162;20.538;2023-02-01T03:47:21;6.20;;;3.00;;
55150;SDS011;41041;43.162;20.538;2023-02-01T03:49:57;6.32;;;2.70;;
55150;SDS011;41041;43.162;20.538;2023-02-01T03:53:02;6.95;;;2.65;;
55150;SDS011;41041;43.162;20.538;2023-02-01T03:55:27;8.95;;;3.70;;
55150;SDS011;41041;43.162;20.538;2023-02-01T03:57:57;9.60;;;3.58;;
55150;SDS011;41041;43.162;20.538;2023-02-01T04:00:27;7.22;;;3.28;;
55150;SDS011;41041;43.162;20.538;2023-02-01T04:02:53;8.40;;;3.88;;
55150;SDS011;41041;43.162;20.538;2023-02-01T04:05:20;12.68;;;4.88;;
55150;SDS011;41041;43.162;20.538;2023-02-01T04:07:46;12.02;;;4.55;;
55150;SDS011;41041;43.162;20.538;2023-02-01T04:10:12;7.53;;;2.75;;
55150;SDS011;41041;43.162;20.538;2023-02-01T04:12:38;3.70;;;2.08;;
55150;SDS011;41041;43.162;20.538;2023-02-01T04:15:04;6.57;;;2.15;;
55150;SDS011;41041;43.162;20.538;2023-02-01T04:17:30;8.00;;;3.20;;
55150;SDS011;41041;43.162;20.538;2023-02-01T04:19:56;6.47;;;3.03;;
55150;SDS011;41041;43.162;20.538;2023-02-01T04:22:21;5.80;;;3.20;;
55150;SDS011;41041;43.162;20.538;2023-02-01T04:24:47;7.70;;;3.13;;
55150;SDS011;41041;43.162;20.538;2023-02-01T04:27:13;7.93;;;3.10;;
55150;SDS011;41041;43.162;20.538;2023-02-01T04:29:39;5.93;;;2.90;;
55150;SDS011;41041;43.162;20.538;2023-02-01T04:32:05;7.30;;;3.05;;
55150;SDS011;41041;43.162;20.538;2023-02-01T04:34:31;7.25;;;3.33;;
55150;SDS011;41041;43.162;20.538;2023-02-01T04:36:57;6.45;;;2.90;;
55150;SDS011;41041;43.162;20.538;2023-02-01T04:39:23;7.20;;;2.72;;
55150;SDS011;41041;43.162;20.538;2023-02-01T04:41:48;10.07;;;5.07;;
55150;SDS011;41041;43.162;20.538;2023-02-01T04:44:15;10.32;;;4.70;;
55150;SDS011;41041;43.162;20.538;2023-02-01T04:46:42;8.10;;;3.45;;
55150;SDS011;41041;43.162;20.538;2023-02-01T04:49:09;7.85;;;3.67;;
55150;SDS011;41041;43.162;20.538;2023-02-01T04:51:35;6.50;;;3.50;;
55150;SDS011;41041;43.162;20.538;2023-02-01T04:54:02;6.90;;;3.63;;
55150;SDS011;41041;43.162;20.538;2023-02-01T04:56:28;6.95;;;3.22;;
55150;SDS011;41041;43.162;20.538;2023-02-01T04:58:53;8.15;;;3.60;;
55150;SDS011;41041;43.162;20.538;2023-02-01T05:01:20;13.07;;;6.75;;
55150;SDS011;41041;43.162;20.538;2023-02-01T05:03:46;10.07;;;4.78;;
55150;SDS011;41041;43.162;20.538;2023-02-01T05:06:12;10.85;;;4.32;;
55150;SDS011;41041;43.162;20.538;2023-02-01T05:08:38;7.20;;;3.80;;
55150;SDS011;41041;43.162;20.538;2023-02-01T05:11:04;6.43;;;2.65;;
55150;SDS011;41041;43.162;20.538;2023-02-01T05:13:30;5.28;;;2.75;;
55150;SDS011;41041;43.162;20.538;2023-02-01T05:16:14;5.03;;;2.47;;
55150;SDS011;41041;43.162;20.538;2023-02-01T05:18:40;6.78;;;2.60;;
55150;SDS011;41041;43.162;20.538;2023-02-01T05:21:05;7.80;;;3.65;;
55150;SDS011;41041;43.162;20.538;2023-02-01T05:23:33;8.63;;;3.42;;
55150;SDS011;41041;43.162;20.538;2023-02-01T05:26:20;6.68;;;3.00;;
55150;SDS011;41041;43.162;20.538;2023-02-01T05:28:46;10.98;;;3.30;;
55150;SDS011;41041;43.162;20.538;2023-02-01T05:31:18;7.63;;;4.13;;
55150;SDS011;41041;43.162;20.538;2023-02-01T05:33:43;8.38;;;4.22;;
55150;SDS011;41041;43.162;20.538;2023-02-01T05:36:12;11.05;;;4.90;;
55150;SDS011;41041;43.162;20.538;2023-02-01T05:38:38;35.15;;;11.77;;
55150;SDS011;41041;43.162;20.538;2023-02-01T05:41:15;38.05;;;12.45;;
55150;SDS011;41041;43.162;20.538;2023-02-01T05:43:41;24.23;;;10.75;;
55150;SDS011;41041;43.162;20.538;2023-02-01T05:46:06;14.85;;;7.80;;
55150;SDS011;41041;43.162;20.538;2023-02-01T05:48:37;17.35;;;8.85;;
55150;SDS011;41041;43.162;20.538;2023-02-01T05:51:07;14.13;;;6.70;;
55150;SDS011;41041;43.162;20.538;2023-02-01T05:53:33;21.60;;;6.72;;
55150;SDS011;41041;43.162;20.538;2023-02-01T05:55:59;13.02;;;5.40;;
55150;SDS011;41041;43.162;20.538;2023-02-01T05:58:45;12.80;;;3.97;;
55150;SDS011;41041;43.162;20.538;2023-02-01T06:01:11;14.70;;;6.43;;
55150;SDS011;41041;43.162;20.538;2023-02-01T06:03:37;13.38;;;6.65;;
55150;SDS011;41041;43.162;20.538;2023-02-01T06:06:03;14.68;;;5.55;;
55150;SDS011;41041;43.162;20.538;2023-02-01T06:08:29;15.10;;;6.75;;
55150;SDS011;41041;43.162;20.538;2023-02-01T06:11:02;21.00;;;9.80;;
55150;SDS011;41041;43.162;20.538;2023-02-01T06:13:28;18.13;;;8.40;;
55150;SDS011;41041;43.162;20.538;2023-02-01T06:15:54;18.88;;;7.10;;
55150;SDS011;41041;43.162;20.538;2023-02-01T06:18:22;16.30;;;8.55;;
55150;SDS011;41041;43.162;20.538;2023-02-01T06:20:52;11.68;;;5.75;;
55150;SDS011;41041;43.162;20.538;2023-02-01T06:23:21;13.80;;;5.90;;
55150;SDS011;41041;43.162;20.538;2023-02-01T06:25:49;13.48;;;6.50;;
55150;SDS011;41041;43.162;20.538;2023-02-01T06:28:16;12.00;;;5.65;;
55150;SDS011;41041;43.162;20.538;2023-02-01T06:30:41;8.93;;;4.68;;
55150;SDS011;41041;43.162;20.538;2023-02-01T06:33:10;12.55;;;6.80;;
55150;SDS011;41041;43.162;20.538;2023-02-01T06:35:40;19.48;;;9.52;;
55150;SDS011;41041;43.162;20.538;2023-02-01T06:38:10;16.08;;;8.05;;
55150;SDS011;41041;43.162;20.538;2023-02-01T06:40:36;14.57;;;5.53;;
55150;SDS011;41041;43.162;20.538;2023-02-01T06:43:02;9.65;;;4.00;;
55150;SDS011;41041;43.162;20.538;2023-02-01T06:45:40;21.02;;;11.95;;
55150;SDS011;41041;43.162;20.538;2023-02-01T06:48:06;17.48;;;8.15;;
55150;SDS011;41041;43.162;20.538;2023-02-01T06:50:32;22.60;;;10.70;;
55150;SDS011;41041;43.162;20.538;2023-02-01T06:53:00;15.98;;;8.25;;
55150;SDS011;41041;43.162;20.538;2023-02-01T06:55:26;17.02;;;7.05;;
55150;SDS011;41041;43.162;20.538;2023-02-01T07:00:27;24.63;;;13.70;;
55150;SDS011;41041;43.162;20.538;2023-02-01T07:02:58;18.02;;;11.13;;
55150;SDS011;41041;43.162;20.538;2023-02-01T07:05:27;25.27;;;15.80;;
55150;SDS011;41041;43.162;20.538;2023-02-01T07:07:53;29.00;;;15.82;;
55150;SDS011;41041;43.162;20.538;2023-02-01T07:10:18;28.73;;;15.25;;
55150;SDS011;41041;43.162;20.538;2023-02-01T07:12:44;25.85;;;14.77;;
55150;SDS011;41041;43.162;20.538;2023-02-01T07:15:10;30.52;;;14.75;;
55150;SDS011;41041;43.162;20.538;2023-02-01T07:17:38;32.08;;;17.80;;
55150;SDS011;41041;43.162;20.538;2023-02-01T07:20:04;36.10;;;17.35;;
55150;SDS011;41041;43.162;20.538;2023-02-01T07:22:35;32.97;;;15.50;;
55150;SDS011;41041;43.162;20.538;2023-02-01T07:25:01;26.45;;;13.27;;
55150;SDS011;41041;43.162;20.538;2023-02-01T07:27:45;24.90;;;11.63;;
55150;SDS011;41041;43.162;20.538;2023-02-01T07:30:20;21.73;;;11.60;;
55150;SDS011;41041;43.162;20.538;2023-02-01T07:32:51;24.55;;;11.73;;
55150;SDS011;41041;43.162;20.538;2023-02-01T07:35:17;48.40;;;24.60;;
55150;SDS011;41041;43.162;20.538;2023-02-01T07:37:42;64.53;;;29.17;;
55150;SDS011;41041;43.162;20.538;2023-02-01T07:40:16;65.50;;;30.60;;
55150;SDS011;41041;43.162;20.538;2023-02-01T07:42:43;44.83;;;19.92;;
55150;SDS011;41041;43.162;20.538;2023-02-01T07:45:13;36.88;;;13.60;;
55150;SDS011;41041;43.162;20.538;2023-02-01T07:47:51;24.45;;;13.60;;
55150;SDS011;41041;43.162;20.538;2023-02-01T07:50:20;20.90;;;12.30;;
55150;SDS011;41041;43.162;20.538;2023-02-01T07:52:49;13.82;;;6.20;;
55150;SDS011;41041;43.162;20.538;2023-02-01T07:55:15;28.88;;;9.52;;
55150;SDS011;41041;43.162;20.538;2023-02-01T07:58:07;28.55;;;10.18;;
55150;SDS011;41041;43.162;20.538;2023-02-01T08:04:12;15.10;;;7.32;;
55150;SDS011;41041;43.162;20.538;2023-02-01T08:06:56;22.58;;;8.43;;
55150;SDS011;41041;43.162;20.538;2023-02-01T08:09:52;16.50;;;8.88;;
55150;SDS011;41041;43.162;20.538;2023-02-01T08:12:24;22.73;;;11.50;;
55150;SDS011;41041;43.162;20.538;2023-02-01T08:17:58;47.65;;;22.52;;
55150;SDS011;41041;43.162;20.538;2023-02-01T08:20:45;45.50;;;18.60;;
55150;SDS011;41041;43.162;20.538;2023-02-01T08:33:42;15.60;;;7.03;;
55150;SDS011;41041;43.162;20.538;2023-02-01T08:36:43;13.52;;;4.80;;
55150;SDS011;41041;43.162;20.538;2023-02-01T09:13:57;8.25;;;4.43;;
55150;SDS011;41041;43.162;20.538;2023-02-01T09:17:09;13.07;;;3.88;;
55150;SDS011;41041;43.162;20.538;2023-02-01T09:19:38;12.48;;;5.63;;
55150;SDS011;41041;43.162;20.538;2023-02-01T09:22:47;13.75;;;5.55;;
55150;SDS011;41041;43.162;20.538;2023-02-01T09:30:40;14.73;;;5.78;;
55150;SDS011;41041;43.162;20.538;2023-02-01T09:37:24;11.23;;;4.32;;
55150;SDS011;41041;43.162;20.538;2023-02-01T09:40:00;13.68;;;7.07;;
55150;SDS011;41041;43.162;20.538;2023-02-01T09:48:48;11.83;;;5.70;;
55150;SDS011;41041;43.162;20.538;2023-02-01T09:51:32;17.02;;;5.57;;
55150;SDS011;41041;43.162;20.538;2023-02-01T10:03:38;13.82;;;4.47;;
55150;SDS011;41041;43.162;20.538;2023-02-01T10:21:53;5.10;;;2.53;;
55150;SDS011;41041;43.162;20.538;2023-02-01T10:27:08;5.97;;;1.77;;
55150;SDS011;41041;43.162;20.538;2023-02-01T10:32:41;6.07;;;2.60;;
55150;SDS011;41041;43.162;20.538;2023-02-01T10:35:13;11.55;;;4.25;;
55150;SDS011;41041;43.162;20.538;2023-02-01T10:37:47;4.60;;;1.60;;
55150;SDS011;41041;43.162;20.538;2023-02-01T10:40:15;7.90;;;3.58;;
55150;SDS011;41041;43.162;20.538;2023-02-01T10:42:42;10.10;;;3.05;;
55150;SDS011;41041;43.162;20.538;2023-02-01T10:45:27;3.83;;;2.40;;
55150;SDS011;41041;43.162;20.538;2023-02-01T10:48:25;4.72;;;1.95;;
55150;SDS011;41041;43.162;20.538;2023-02-01T10:57:42;4.18;;;1.70;;
55150;SDS011;41041;43.162;20.538;2023-02-01T11:00:20;4.05;;;1.75;;
55150;SDS011;41041;43.162;20.538;2023-02-01T11:02:49;7.57;;;2.30;;
55150;SDS011;41041;43.162;20.538;2023-02-01T11:05:18;2.88;;;1.50;;
55150;SDS011;41041;43.162;20.538;2023-02-01T11:07:51;3.78;;;1.45;;
55150;SDS011;41041;43.162;20.538;2023-02-01T11:13:17;21.27;;;3.60;;
55150;SDS011;41041;43.162;20.538;2023-02-01T11:15:44;6.55;;;2.05;;
55150;SDS011;41041;43.162;20.538;2023-02-01T11:18:17;5.88;;;2.92;;
55150;SDS011;41041;43.162;20.538;2023-02-01T11:20:51;7.97;;;3.58;;
55150;SDS011;41041;43.162;20.538;2023-02-01T11:23:21;2.70;;;1.10;;
55150;SDS011;41041;43.162;20.538;2023-02-01T11:25:55;4.57;;;1.40;;
55150;SDS011;41041;43.162;20.538;2023-02-01T11:28:23;11.48;;;4.20;;
55150;SDS011;41041;43.162;20.538;2023-02-01T11:30:49;3.30;;;1.63;;
55150;SDS011;41041;43.162;20.538;2023-02-01T11:33:20;5.97;;;2.33;;
55150;SDS011;41041;43.162;20.538;2023-02-01T11:35:54;5.90;;;2.80;;
55150;SDS011;41041;43.162;20.538;2023-02-01T11:41:17;4.30;;;2.30;;
55150;SDS011;41041;43.162;20.538;2023-02-01T11:43:57;3.53;;;2.00;;
55150;SDS011;41041;43.162;20.538;2023-02-01T11:46:30;15.52;;;4.40;;
55150;SDS011;41041;43.162;20.538;2023-02-01T11:49:13;13.82;;;5.22;;
55150;SDS011;41041;43.162;20.538;2023-02-01T11:54:32;14.93;;;3.88;;
55150;SDS011;41041;43.162;20.538;2023-02-01T11:59:37;11.55;;;4.63;;
55150;SDS011;41041;43.162;20.538;2023-02-01T12:10:36;18.08;;;6.75;;
55150;SDS011;41041;43.162;20.538;2023-02-01T12:16:35;20.17;;;8.93;;
55150;SDS011;41041;43.162;20.538;2023-02-01T12:18:49;11.90;;;4.95;;
55150;SDS011;41041;43.162;20.538;2023-02-01T12:21:22;17.25;;;6.85;;
55150;SDS011;41041;43.162;20.538;2023-02-01T12:34:51;1.73;;;0.93;;
55150;SDS011;41041;43.162;20.538;2023-02-01T12:46:33;1.73;;;0.82;;
55150;SDS011;41041;43.162;20.538;2023-02-01T12:52:16;1.75;;;0.90;;
55150;SDS011;41041;43.162;20.538;2023-02-01T12:57:55;5.00;;;2.28;;
55150;SDS011;41041;43.162;20.538;2023-02-01T13:00:47;3.10;;;1.67;;
55150;SDS011;41041;43.162;20.538;2023-02-01T13:06:18;2.10;;;0.90;;
55150;SDS011;41041;43.162;20.538;2023-02-01T13:11:32;2.10;;;1.10;;
55150;SDS011;41041;43.162;20.538;2023-02-01T13:19:49;3.60;;;1.88;;
55150;SDS011;41041;43.162;20.538;2023-02-01T13:21:57;4.97;;;1.50;;
55150;SDS011;41041;43.162;20.538;2023-02-01T13:27:13;5.80;;;2.70;;
55150;SDS011;41041;43.162;20.538;2023-02-01T13:30:04;4.53;;;1.48;;
55150;SDS011;41041;43.162;20.538;2023-02-01T13:35:21;8.95;;;1.80;;
55150;SDS011;41041;43.162;20.538;2023-02-01T13:43:02;1.92;;;1.00;;
55150;SDS011;41041;43.162;20.538;2023-02-01T13:45:32;2.05;;;1.13;;
55150;SDS011;41041;43.162;20.538;2023-02-01T13:47:59;3.53;;;1.00;;
55150;SDS011;41041;43.162;20.538;2023-02-01T13:55:45;3.28;;;1.63;;
55150;SDS011;41041;43.162;20.538;2023-02-01T13:58:23;1.98;;;1.17;;
55150;SDS011;41041;43.162;20.538;2023-02-01T14:03:54;5.60;;;2.58;;
55150;SDS011;41041;43.162;20.538;2023-02-01T14:11:44;3.50;;;1.60;;
55150;SDS011;41041;43.162;20.538;2023-02-01T14:16:40;11.48;;;3.65;;
55150;SDS011;41041;43.162;20.538;2023-02-01T14:19:22;5.60;;;2.13;;
55150;SDS011;41041;43.162;20.538;2023-02-01T14:21:58;7.25;;;3.20;;
55150;SDS011;41041;43.162;20.538;2023-02-01T14:26:57;8.27;;;4.70;;
55150;SDS011;41041;43.162;20.538;2023-02-01T14:29:30;12.30;;;3.97;;
55150;SDS011;41041;43.162;20.538;2023-02-01T14:32:11;7.35;;;3.75;;
55150;SDS011;41041;43.162;20.538;2023-02-01T14:47:51;2.53;;;1.05;;
55150;SDS011;41041;43.162;20.538;2023-02-01T14:53:01;3.15;;;1.40;;
55150;SDS011;41041;43.162;20.538;2023-02-01T14:55:45;2.60;;;1.67;;
55150;SDS011;41041;43.162;20.538;2023-02-01T15:06:30;3.38;;;1.48;;
55150;SDS011;41041;43.162;20.538;2023-02-01T15:14:43;16.48;;;6.45;;
55150;SDS011;41041;43.162;20.538;2023-02-01T15:17:19;13.38;;;6.70;;
55150;SDS011;41041;43.162;20.538;2023-02-01T15:19:59;13.25;;;5.70;;
55150;SDS011;41041;43.162;20.538;2023-02-01T15:22:29;5.68;;;3.20;;
55150;SDS011;41041;43.162;20.538;2023-02-01T15:24:58;7.00;;;3.20;;
55150;SDS011;41041;43.162;20.538;2023-02-01T15:27:25;5.53;;;3.00;;
55150;SDS011;41041;43.162;20.538;2023-02-01T15:30:12;8.05;;;2.85;;
55150;SDS011;41041;43.162;20.538;2023-02-01T15:32:48;7.53;;;3.53;;
55150;SDS011;41041;43.162;20.538;2023-02-01T15:43:26;5.50;;;2.53;;
55150;SDS011;41041;43.162;20.538;2023-02-01T15:45:55;3.83;;;2.15;;
55150;SDS011;41041;43.162;20.538;2023-02-01T15:48:23;4.55;;;2.30;;
55150;SDS011;41041;43.162;20.538;2023-02-01T15:50:51;4.88;;;2.95;;
55150;SDS011;41041;43.162;20.538;2023-02-01T15:53:19;37.08;;;21.00;;
55150;SDS011;41041;43.162;20.538;2023-02-01T15:55:46;24.15;;;11.68;;
55150;SDS011;41041;43.162;20.538;2023-02-01T15:58:20;28.30;;;14.10;;
55150;SDS011;41041;43.162;20.538;2023-02-01T16:00:51;28.17;;;14.50;;
55150;SDS011;41041;43.162;20.538;2023-02-01T16:03:37;19.20;;;9.70;;
55150;SDS011;41041;43.162;20.538;2023-02-01T16:06:08;17.35;;;8.63;;
55150;SDS011;41041;43.162;20.538;2023-02-01T16:08:54;20.83;;;8.73;;
55150;SDS011;41041;43.162;20.538;2023-02-01T16:11:32;26.65;;;12.20;;
55150;SDS011;41041;43.162;20.538;2023-02-01T16:14:06;17.73;;;8.00;;
55150;SDS011;41041;43.162;20.538;2023-02-01T16:16:39;17.33;;;8.02;;
55150;SDS011;41041;43.162;20.538;2023-02-01T16:19:05;19.00;;;9.43;;
55150;SDS011;41041;43.162;20.538;2023-02-01T16:21:31;32.60;;;15.63;;
55150;SDS011;41041;43.162;20.538;2023-02-01T16:23:57;29.08;;;14.00;;
55150;SDS011;41041;43.162;20.538;2023-02-01T16:26:27;22.52;;;9.75;;
55150;SDS011;41041;43.162;20.538;2023-02-01T16:28:56;48.35;;;17.05;;
55150;SDS011;41041;43.162;20.538;2023-02-01T16:31:23;47.80;;;23.10;;
55150;SDS011;41041;43.162;20.538;2023-02-01T16:36:24;41.33;;;22.02;;
55150;SDS011;41041;43.162;20.538;2023-02-01T16:38:52;44.50;;;21.02;;
55150;SDS011;41041;43.162;20.538;2023-02-01T16:41:20;29.30;;;14.27;;
55150;SDS011;41041;43.162;20.538;2023-02-01T16:43:51;30.52;;;13.05;;
55150;SDS011;41041;43.162;20.538;2023-02-01T16:46:21;31.53;;;14.10;;
55150;SDS011;41041;43.162;20.538;2023-02-01T16:49:00;33.38;;;16.90;;
55150;SDS011;41041;43.162;20.538;2023-02-01T16:51:28;33.40;;;18.25;;
55150;SDS011;41041;43.162;20.538;2023-02-01T16:54:00;45.90;;;28.67;;
55150;SDS011;41041;43.162;20.538;2023-02-01T16:56:33;37.50;;;19.75;;
55150;SDS011;41041;43.162;20.538;2023-02-01T16:59:14;29.40;;;15.63;;
55150;SDS011;41041;43.162;20.538;2023-02-01T17:01:48;18.25;;;10.50;;
55150;SDS011;41041;43.162;20.538;2023-02-01T17:04:14;25.83;;;14.45;;
55150;SDS011;41041;43.162;20.538;2023-02-01T17:06:44;37.22;;;17.15;;
55150;SDS011;41041;43.162;20.538;2023-02-01T17:09:15;32.40;;;18.13;;
55150;SDS011;41041;43.162;20.538;2023-02-01T17:11:41;41.47;;;18.13;;
55150;SDS011;41041;43.162;20.538;2023-02-01T17:17:23;42.25;;;17.67;;
55150;SDS011;41041;43.162;20.538;2023-02-01T17:20:17;38.95;;;16.52;;
55150;SDS011;41041;43.162;20.538;2023-02-01T17:23:08;41.58;;;19.77;;
55150;SDS011;41041;43.162;20.538;2023-02-01T17:25:36;50.88;;;17.95;;
55150;SDS011;41041;43.162;20.538;2023-02-01T17:28:20;28.27;;;14.20;;
55150;SDS011;41041;43.162;20.538;2023-02-01T17:30:55;31.33;;;16.75;;
55150;SDS011;41041;43.162;20.538;2023-02-01T17:42:56;48.28;;;25.50;;
55150;SDS011;41041;43.162;20.538;2023-02-01T17:45:27;47.25;;;23.35;;
55150;SDS011;41041;43.162;20.538;2023-02-01T17:47:58;42.08;;;20.17;;
55150;SDS011;41041;43.162;20.538;2023-02-01T17:50:25;48.97;;;23.85;;
55150;SDS011;41041;43.162;20.538;2023-02-01T17:53:06;61.92;;;29.27;;
55150;SDS011;41041;43.162;20.538;2023-02-01T17:58:18;38.33;;;19.65;;
55150;SDS011;41041;43.162;20.538;2023-02-01T18:00:53;39.70;;;20.25;;
55150;SDS011;41041;43.162;20.538;2023-02-01T18:03:40;32.42;;;17.77;;
55150;SDS011;41041;43.162;20.538;2023-02-01T18:16:21;30.80;;;15.30;;
55150;SDS011;41041;43.162;20.538;2023-02-01T19:12:53;42.65;;;17.83;;
55150;SDS011;41041;43.162;20.538;2023-02-01T19:25:04;22.90;;;12.38;;
55150;SDS011;41041;43.162;20.538;2023-02-01T19:47:42;20.67;;;11.20;;
55150;SDS011;41041;43.162;20.538;2023-02-01T19:50:31;40.80;;;22.52;;
55150;SDS011;41041;43.162;20.538;2023-02-01T19:53:03;30.33;;;18.20;;
55150;SDS011;41041;43.162;20.538;2023-02-01T19:55:45;27.45;;;15.55;;
55150;SDS011;41041;43.162;20.538;2023-02-01T19:58:28;30.73;;;15.48;;
55150;SDS011;41041;43.162;20.538;2023-02-01T20:01:01;22.65;;;13.50;;
55150;SDS011;41041;43.162;20.538;2023-02-01T20:07:12;29.33;;;16.27;;
55150;SDS011;41041;43.162;20.538;2023-02-01T20:10:04;59.60;;;25.10;;
55150;SDS011;41041;43.162;20.538;2023-02-01T20:12:59;36.70;;;17.65;;
55150;SDS011;41041;43.162;20.538;2023-02-01T20:15:27;44.25;;;20.10;;
55150;SDS011;41041;43.162;20.538;2023-02-01T20:18:12;31.45;;;17.02;;
55150;SDS011;41041;43.162;20.538;2023-02-01T20:20:57;24.17;;;13.27;;
55150;SDS011;41041;43.162;20.538;2023-02-01T20:24:33;20.50;;;12.43;;
55150;SDS011;41041;43.162;20.538;2023-02-01T20:30:59;38.08;;;21.63;;
55150;SDS011;41041;43.162;20.538;2023-02-01T20:37:28;49.55;;;24.38;;
55150;SDS011;41041;43.162;20.538;2023-02-01T20:40:36;46.53;;;25.70;;
55150;SDS011;41041;43.162;20.538;2023-02-01T20:46:51;29.08;;;15.27;;
55150;SDS011;41041;43.162;20.538;2023-02-01T20:49:22;31.13;;;18.98;;
55150;SDS011;41041;43.162;20.538;2023-02-01T20:54:49;33.38;;;19.17;;
55150;SDS011;41041;43.162;20.538;2023-02-01T20:57:21;35.28;;;18.83;;
55150;SDS011;41041;43.162;20.538;2023-02-01T20:59:54;36.83;;;19.40;;
55150;SDS011;41041;43.162;20.538;2023-02-01T21:02:23;31.73;;;18.35;;
55150;SDS011;41041;43.162;20.538;2023-02-01T21:04:49;40.58;;;23.52;;
55150;SDS011;41041;43.162;20.538;2023-02-01T21:07:17;67.78;;;39.70;;
55150;SDS011;41041;43.162;20.538;2023-02-01T21:09:52;87.53;;;47.08;;
55150;SDS011;41041;43.162;20.538;2023-02-01T21:12:21;28.83;;;16.60;;
55150;SDS011;41041;43.162;20.538;2023-02-01T21:14:50;37.08;;;19.65;;
55150;SDS011;41041;43.162;20.538;2023-02-01T21:17:16;79.70;;;44.50;;
55150;SDS011;41041;43.162;20.538;2023-02-01T21:19:44;58.55;;;30.55;;
55150;SDS011;41041;43.162;20.538;2023-02-01T21:22:13;40.78;;;24.17;;
55150;SDS011;41041;43.162;20.538;2023-02-01T21:24:40;34.13;;;20.08;;
55150;SDS011;41041;43.162;20.538;2023-02-01T21:27:10;33.53;;;19.63;;
55150;SDS011;41041;43.162;20.538;2023-02-01T21:29:37;57.67;;;33.03;;
55150;SDS011;41041;43.162;20.538;2023-02-01T21:32:04;32.10;;;18.58;;
55150;SDS011;41041;43.162;20.538;2023-02-01T21:34:34;48.67;;;27.20;;
55150;SDS011;41041;43.162;20.538;2023-02-01T21:37:00;30.20;;;17.95;;